Kirkwood, Missouri
Current Conditions -  °F | °C
As of 7:51 PM on Friday 31 Oct 2014 (Local Time) from KSTL Reporting Station
Clear Clear  
Wind Chill: 34°   Ceiling: Unl
Heat Index: 41°   Visibility: 10mi
Dew Point: 22°   Wind: 12mph
Humidity: 47%   Direction: 340°NNW
Pressure: 30.37"   Gusts: NA
Location:  38.58°N, 90.41°W
Report Text: KSTL 010051Z 34010KT 10SM CLR 05/M06 A3037 RMK AO2 SLP289 T00501056
Loading
Personal Weather Stations






























Interactive Weather Map
Tropical Storm Tracking
New forecast layout! Learn more

10-Day Weather Forecast

Advertisements
Track Severe Weather on mobile